Time;durP1;ratioP1;P1;durP2;ratioP2;P2;SDS_P1;SDS_P2;PMS_P1;PMS_P2;Temp;Humidity;BMP_temperature;BMP_pressure;BME280_temperature;BME280_humidity;BME280_pressure;Samples;Min_cycle;Max_cycle;Signal;HPM_P1;HPM_P2
2022/04/04 00:00:07;;;;;;;2.10;1.33;;;;;;;;;;5090971;28;20031;-62
2022/04/04 00:02:33;;;;;;;1.52;1.00;;;;;;;;;;5091950;28;20032;-61
2022/04/04 00:04:59;;;;;;;1.55;1.20;;;;;;;;;;5090584;28;20070;-61
2022/04/04 00:07:25;;;;;;;2.35;1.40;;;;;;;;;;5091980;28;20020;-61
2022/04/04 00:09:51;;;;;;;2.17;1.13;;;;;;;;;;5091066;28;20028;-61
2022/04/04 00:12:17;;;;;;;3.28;2.08;;;;;;;;;;5091093;28;20044;-61
2022/04/04 00:14:44;;;;;;;1.67;1.38;;;;;;;;;;5091735;28;20109;-61
2022/04/04 00:17:11;;;;;;;2.22;1.00;;;;;;;;;;5091371;28;20032;-62
2022/04/04 00:19:37;;;;;;;1.77;1.10;;;;;;;;;;5091610;28;20151;-61
2022/04/04 00:22:03;;;;;;;1.40;1.00;;;;;;;;;;5090914;28;20036;-62
2022/04/04 00:24:29;;;;;;;1.42;1.15;;;;;;;;;;5091475;28;20404;-61
2022/04/04 00:26:55;;;;;;;2.00;1.17;;;;;;;;;;5090784;28;20059;-61
2022/04/04 00:29:21;;;;;;;2.03;1.20;;;;;;;;;;5091926;28;20445;-61
2022/04/04 00:31:47;;;;;;;1.50;1.10;;;;;;;;;;5091155;28;20019;-62
2022/04/04 00:34:13;;;;;;;2.40;1.10;;;;;;;;;;5091539;28;20020;-61
2022/04/04 00:36:40;;;;;;;2.35;1.23;;;;;;;;;;5091521;28;20016;-60
2022/04/04 00:39:06;;;;;;;1.30;1.00;;;;;;;;;;5090394;28;20040;-61
2022/04/04 00:41:32;;;;;;;1.33;1.10;;;;;;;;;;5091631;28;20060;-61
2022/04/04 00:43:58;;;;;;;1.60;1.23;;;;;;;;;;5089971;28;20020;-61
2022/04/04 00:46:24;;;;;;;1.63;1.23;;;;;;;;;;5091457;28;20427;-61
2022/04/04 00:48:50;;;;;;;1.58;1.00;;;;;;;;;;5090793;28;20070;-62
2022/04/04 00:51:16;;;;;;;1.35;1.00;;;;;;;;;;5091541;28;20084;-61
2022/04/04 00:53:42;;;;;;;1.40;1.30;;;;;;;;;;5090698;28;20077;-61
2022/04/04 00:56:11;;;;;;;1.65;1.27;;;;;;;;;;5089098;28;20020;-61
2022/04/04 00:58:38;;;;;;;2.00;0.90;;;;;;;;;;5090815;28;20042;-61
2022/04/04 01:01:04;;;;;;;1.90;1.10;;;;;;;;;;5091184;28;20033;-61
2022/04/04 01:03:30;;;;;;;1.80;1.17;;;;;;;;;;5092141;28;20103;-62
2022/04/04 01:05:58;;;;;;;3.13;1.45;;;;;;;;;;5090021;28;20411;-62
2022/04/04 01:08:24;;;;;;;2.30;1.40;;;;;;;;;;5090952;28;20385;-61
2022/04/04 01:10:50;;;;;;;1.60;1.17;;;;;;;;;;5090520;28;20035;-61
2022/04/04 01:13:17;;;;;;;1.50;0.90;;;;;;;;;;5091306;28;20048;-61
2022/04/04 01:15:43;;;;;;;1.58;1.15;;;;;;;;;;5092511;28;20032;-61
2022/04/04 01:18:09;;;;;;;1.35;0.95;;;;;;;;;;5093948;28;20027;-61
2022/04/04 01:20:36;;;;;;;1.95;0.98;;;;;;;;;;5094931;28;20404;-61
2022/04/04 01:23:02;;;;;;;1.38;0.90;;;;;;;;;;5093336;28;20020;-61
2022/04/04 01:25:30;;;;;;;1.23;1.00;;;;;;;;;;5094634;28;20048;-61
2022/04/04 01:27:57;;;;;;;3.17;1.60;;;;;;;;;;5093677;28;20050;-61
2022/04/04 01:30:23;;;;;;;1.23;1.00;;;;;;;;;;5094685;28;20111;-61
2022/04/04 01:32:50;;;;;;;1.23;1.00;;;;;;;;;;5093816;28;20024;-61
2022/04/04 01:35:17;;;;;;;1.60;1.20;;;;;;;;;;5094320;28;20119;-61
2022/04/04 01:37:43;;;;;;;1.73;0.80;;;;;;;;;;5094195;28;20044;-62
2022/04/04 01:40:10;;;;;;;1.48;0.90;;;;;;;;;;5093701;28;20032;-60
2022/04/04 01:42:37;;;;;;;1.40;0.90;;;;;;;;;;5094300;28;20063;-61
2022/04/04 01:45:04;;;;;;;1.13;0.70;;;;;;;;;;5093221;28;20024;-61
2022/04/04 01:47:30;;;;;;;1.30;0.93;;;;;;;;;;5094094;28;20051;-61
2022/04/04 01:49:56;;;;;;;1.90;1.02;;;;;;;;;;5092785;28;20064;-62
2022/04/04 01:52:22;;;;;;;1.30;0.90;;;;;;;;;;5093618;28;20030;-61
2022/04/04 01:54:48;;;;;;;2.17;1.30;;;;;;;;;;5093252;28;20028;-61
2022/04/04 01:57:14;;;;;;;1.88;1.20;;;;;;;;;;5093771;28;20020;-62
2022/04/04 01:59:40;;;;;;;1.58;1.17;;;;;;;;;;5093876;28;20028;-61
2022/04/04 02:02:06;;;;;;;1.92;1.00;;;;;;;;;;5092916;28;20100;-62
2022/04/04 02:04:33;;;;;;;1.05;0.80;;;;;;;;;;5093440;28;20066;-61
2022/04/04 02:06:59;;;;;;;1.27;1.00;;;;;;;;;;5093053;28;20032;-62
2022/04/04 02:09:25;;;;;;;2.30;1.13;;;;;;;;;;5094070;28;20026;-61
2022/04/04 02:11:51;;;;;;;1.58;1.10;;;;;;;;;;5093057;28;20016;-61
2022/04/04 02:14:17;;;;;;;1.73;1.00;;;;;;;;;;5093342;28;20028;-61
2022/04/04 02:16:45;;;;;;;1.95;1.10;;;;;;;;;;5093232;28;20112;-61
2022/04/04 02:19:11;;;;;;;1.45;1.20;;;;;;;;;;5092257;28;20024;-61
2022/04/04 02:21:37;;;;;;;1.25;1.00;;;;;;;;;;5093459;28;20047;-61
2022/04/04 02:24:04;;;;;;;1.35;1.00;;;;;;;;;;5092862;28;20031;-61
2022/04/04 02:26:30;;;;;;;1.52;0.98;;;;;;;;;;5093262;28;20085;-61
2022/04/04 02:28:56;;;;;;;1.38;1.02;;;;;;;;;;5092821;28;20089;-61
2022/04/04 02:31:22;;;;;;;1.73;1.00;;;;;;;;;;5093472;28;20028;-61
2022/04/04 02:33:48;;;;;;;1.00;0.88;;;;;;;;;;5092560;28;20026;-61
2022/04/04 02:36:14;;;;;;;1.80;1.00;;;;;;;;;;5092312;28;20107;-62
2022/04/04 02:38:40;;;;;;;1.25;1.02;;;;;;;;;;5089363;28;20134;-61
2022/04/04 02:41:06;;;;;;;1.02;0.80;;;;;;;;;;5092569;28;20031;-62
2022/04/04 02:43:32;;;;;;;1.77;0.95;;;;;;;;;;5092556;28;20435;-61
2022/04/04 02:45:59;;;;;;;1.88;1.42;;;;;;;;;;5091654;28;20028;-61
2022/04/04 02:48:25;;;;;;;1.55;1.25;;;;;;;;;;5092714;28;20370;-62
2022/04/04 02:50:52;;;;;;;1.20;0.85;;;;;;;;;;5092837;28;20036;-62
2022/04/04 02:53:18;;;;;;;2.13;1.35;;;;;;;;;;5092711;28;20480;-61
2022/04/04 02:58:29;;;;;;;1.17;0.88;;;;;;;;;;5072863;28;20035;-61
2022/04/04 03:00:55;;;;;;;1.05;0.90;;;;;;;;;;5078482;28;20099;-62
2022/04/04 03:03:21;;;;;;;1.42;0.90;;;;;;;;;;5092039;28;20036;-62
2022/04/04 03:05:47;;;;;;;1.92;1.48;;;;;;;;;;5092738;28;20036;-62
2022/04/04 03:08:13;;;;;;;1.17;0.82;;;;;;;;;;5091764;28;20088;-62
2022/04/04 03:10:39;;;;;;;1.25;1.08;;;;;;;;;;5092537;28;20035;-62
2022/04/04 03:13:05;;;;;;;1.08;0.85;;;;;;;;;;5091677;28;20039;-62
2022/04/04 03:15:34;;;;;;;1.27;0.98;;;;;;;;;;5092341;28;20032;-62
2022/04/04 03:18:00;;;;;;;1.20;0.88;;;;;;;;;;5091817;28;20043;-62
2022/04/04 03:20:26;;;;;;;1.33;0.90;;;;;;;;;;5092510;28;20044;-62
2022/04/04 03:22:53;;;;;;;0.93;0.85;;;;;;;;;;5092159;28;20111;-62
2022/04/04 03:25:20;;;;;;;1.50;1.20;;;;;;;;;;5092077;28;20032;-62
2022/04/04 03:27:46;;;;;;;1.60;1.20;;;;;;;;;;5092277;28;20038;-62
2022/04/04 03:30:14;;;;;;;1.48;1.08;;;;;;;;;;5091406;28;20088;-62
2022/04/04 03:32:40;;;;;;;1.55;1.10;;;;;;;;;;5092369;28;20028;-62
2022/04/04 03:35:06;;;;;;;1.10;1.00;;;;;;;;;;5091393;28;20019;-61
2022/04/04 03:37:33;;;;;;;1.55;1.10;;;;;;;;;;5091452;28;20099;-61
2022/04/04 03:39:59;;;;;;;1.08;0.98;;;;;;;;;;5091322;28;20028;-61
2022/04/04 03:42:26;;;;;;;1.73;1.23;;;;;;;;;;5092580;28;20081;-62
2022/04/04 03:44:52;;;;;;;2.30;1.00;;;;;;;;;;5091447;28;20031;-61
2022/04/04 03:47:18;;;;;;;1.95;0.95;;;;;;;;;;5091664;28;20035;-61
2022/04/04 03:49:44;;;;;;;1.50;1.08;;;;;;;;;;5091666;28;20028;-61
2022/04/04 03:52:11;;;;;;;1.23;1.13;;;;;;;;;;5091199;28;20099;-61
2022/04/04 03:54:38;;;;;;;1.27;1.02;;;;;;;;;;5091594;28;20041;-61
2022/04/04 03:57:04;;;;;;;1.48;1.02;;;;;;;;;;5090930;28;20024;-61
2022/04/04 03:59:30;;;;;;;2.15;1.17;;;;;;;;;;5092044;28;20024;-62
2022/04/04 04:01:56;;;;;;;1.00;0.73;;;;;;;;;;5091123;28;20550;-61
2022/04/04 04:04:22;;;;;;;1.05;0.93;;;;;;;;;;5092275;28;20052;-61
2022/04/04 04:06:48;;;;;;;1.50;1.10;;;;;;;;;;5092055;28;20346;-62
2022/04/04 04:09:14;;;;;;;1.58;1.10;;;;;;;;;;5091206;28;20046;-61
2022/04/04 04:11:40;;;;;;;1.40;1.00;;;;;;;;;;5090690;28;20032;-61
2022/04/04 04:14:06;;;;;;;1.23;0.85;;;;;;;;;;5090892;28;20024;-61
2022/04/04 04:16:32;;;;;;;2.03;1.13;;;;;;;;;;5091359;28;20061;-62
2022/04/04 04:18:58;;;;;;;1.23;0.90;;;;;;;;;;5091006;28;20032;-61
2022/04/04 04:21:24;;;;;;;0.85;0.73;;;;;;;;;;5091995;28;20439;-61
2022/04/04 04:23:51;;;;;;;1.92;1.05;;;;;;;;;;5091634;28;20024;-61
2022/04/04 04:26:17;;;;;;;1.38;1.17;;;;;;;;;;5090108;28;20472;-61
2022/04/04 04:28:44;;;;;;;0.98;0.90;;;;;;;;;;5092084;28;20046;-61
2022/04/04 04:31:10;;;;;;;1.35;1.08;;;;;;;;;;5090931;28;20085;-61
2022/04/04 04:33:37;;;;;;;1.38;1.08;;;;;;;;;;5091535;28;20031;-61
2022/04/04 04:36:03;;;;;;;1.20;1.10;;;;;;;;;;5090516;28;20032;-61
2022/04/04 04:38:30;;;;;;;1.25;1.08;;;;;;;;;;5091492;28;20052;-61
2022/04/04 04:40:56;;;;;;;1.23;0.98;;;;;;;;;;5090716;28;20028;-61
2022/04/04 04:43:22;;;;;;;1.63;1.10;;;;;;;;;;5091558;28;20036;-61
2022/04/04 04:45:48;;;;;;;1.83;1.33;;;;;;;;;;5091074;28;20077;-61
2022/04/04 04:48:14;;;;;;;1.55;1.10;;;;;;;;;;5090979;28;20028;-61
2022/04/04 04:50:40;;;;;;;1.42;0.93;;;;;;;;;;5094253;28;20028;-61
2022/04/04 04:53:06;;;;;;;1.65;1.00;;;;;;;;;;5094487;28;20032;-61
2022/04/04 04:55:33;;;;;;;2.47;1.25;;;;;;;;;;5095118;28;20028;-61
2022/04/04 04:57:59;;;;;;;1.30;1.00;;;;;;;;;;5094760;28;20024;-61
2022/04/04 05:00:27;;;;;;;1.70;1.20;;;;;;;;;;5094836;28;20083;-61
2022/04/04 05:03:27;;;;;;;2.17;1.33;;;;;;;;;;5094961;28;20024;-61
2022/04/04 05:05:46;;;;;;;1.20;1.10;;;;;;;;;;5090460;28;20119;-61
2022/04/04 05:08:12;;;;;;;2.58;1.17;;;;;;;;;;5094099;28;20415;-61
2022/04/04 05:10:38;;;;;;;1.80;1.27;;;;;;;;;;5095156;28;20035;-61
2022/04/04 05:13:04;;;;;;;1.77;1.30;;;;;;;;;;5094393;28;20024;-61
2022/04/04 05:15:30;;;;;;;1.60;1.05;;;;;;;;;;5094384;28;20099;-61
2022/04/04 05:17:56;;;;;;;1.58;1.00;;;;;;;;;;5094612;28;20027;-61
2022/04/04 05:20:23;;;;;;;1.52;1.35;;;;;;;;;;5094417;28;20062;-61
2022/04/04 05:22:49;;;;;;;1.27;0.93;;;;;;;;;;5094594;28;20028;-61
2022/04/04 05:25:15;;;;;;;1.55;0.90;;;;;;;;;;5094337;28;20063;-61
2022/04/04 05:27:41;;;;;;;1.17;0.90;;;;;;;;;;5095021;28;20032;-61
2022/04/04 05:30:08;;;;;;;1.00;0.90;;;;;;;;;;5093039;28;20039;-64
2022/04/04 05:32:34;;;;;;;1.33;1.10;;;;;;;;;;5094895;28;20051;-62
2022/04/04 05:35:01;;;;;;;1.52;1.02;;;;;;;;;;5093263;28;20095;-61
2022/04/04 05:37:27;;;;;;;2.00;1.23;;;;;;;;;;5093581;28;20028;-61
2022/04/04 05:39:53;;;;;;;1.30;1.05;;;;;;;;;;5094605;28;20070;-60
2022/04/04 05:42:19;;;;;;;2.08;1.20;;;;;;;;;;5093805;28;20028;-61
2022/04/04 05:44:45;;;;;;;1.63;1.30;;;;;;;;;;5094443;28;20089;-60
2022/04/04 05:47:13;;;;;;;1.55;1.17;;;;;;;;;;5092340;28;20024;-61
2022/04/04 05:49:40;;;;;;;1.27;1.00;;;;;;;;;;5093143;28;20482;-61
2022/04/04 05:52:07;;;;;;;1.98;1.10;;;;;;;;;;5093540;28;20157;-62
2022/04/04 05:54:33;;;;;;;2.17;1.40;;;;;;;;;;5093713;28;20381;-60
2022/04/04 05:56:59;;;;;;;3.10;1.58;;;;;;;;;;5093335;28;20140;-61
2022/04/04 05:59:25;;;;;;;4.13;1.30;;;;;;;;;;5093978;28;20095;-61
2022/04/04 06:01:51;;;;;;;4.75;1.40;;;;;;;;;;5092820;28;20351;-60
2022/04/04 06:04:17;;;;;;;3.53;1.63;;;;;;;;;;5093220;28;20099;-60
2022/04/04 06:06:44;;;;;;;6.75;1.52;;;;;;;;;;5093711;28;20103;-60
2022/04/04 06:09:10;;;;;;;4.20;1.45;;;;;;;;;;5093288;28;20368;-60
2022/04/04 06:11:36;;;;;;;8.43;1.63;;;;;;;;;;5094062;28;20031;-62
2022/04/04 06:14:02;;;;;;;3.35;1.40;;;;;;;;;;5092423;28;20419;-61
2022/04/04 06:16:28;;;;;;;2.35;1.30;;;;;;;;;;5093538;28;20028;-61
2022/04/04 06:18:54;;;;;;;4.97;1.48;;;;;;;;;;5093289;28;20016;-64
2022/04/04 06:21:20;;;;;;;4.10;1.38;;;;;;;;;;5092675;28;20775;-60
2022/04/04 06:23:46;;;;;;;6.57;1.40;;;;;;;;;;5093561;28;20464;-59
2022/04/04 06:26:13;;;;;;;5.45;1.90;;;;;;;;;;5075977;28;20074;-60
2022/04/04 06:28:39;;;;;;;6.95;4.82;;;;;;;;;;5059927;28;20444;-59
2022/04/04 06:31:06;;;;;;;7.93;4.82;;;;;;;;;;5093050;28;20123;-59
2022/04/04 06:33:32;;;;;;;8.18;5.13;;;;;;;;;;5093446;28;20022;-60
2022/04/04 06:35:58;;;;;;;7.85;5.15;;;;;;;;;;5091434;28;20115;-59
2022/04/04 06:38:24;;;;;;;7.65;4.93;;;;;;;;;;5091675;28;20090;-60
2022/04/04 06:40:51;;;;;;;7.28;4.40;;;;;;;;;;5092173;28;20051;-59
2022/04/04 06:43:17;;;;;;;7.28;4.22;;;;;;;;;;5091463;28;20107;-60
2022/04/04 06:45:44;;;;;;;4.85;3.80;;;;;;;;;;5079229;28;20474;-60
2022/04/04 06:48:10;;;;;;;5.65;3.67;;;;;;;;;;5071256;28;20032;-61
2022/04/04 06:50:36;;;;;;;4.40;3.35;;;;;;;;;;5072001;28;20038;-60
2022/04/04 06:53:02;;;;;;;8.40;3.35;;;;;;;;;;5070974;28;20032;-60
2022/04/04 06:55:29;;;;;;;5.63;3.28;;;;;;;;;;5071324;28;20035;-60
2022/04/04 06:57:55;;;;;;;4.20;2.75;;;;;;;;;;5070563;28;20028;-60
2022/04/04 07:00:23;;;;;;;4.38;2.92;;;;;;;;;;5070685;28;20025;-60
2022/04/04 07:02:49;;;;;;;5.43;2.97;;;;;;;;;;5071331;28;20031;-60
2022/04/04 07:05:16;;;;;;;3.42;2.28;;;;;;;;;;5070730;28;20032;-60
2022/04/04 07:07:42;;;;;;;4.72;2.65;;;;;;;;;;5053591;28;20027;-60
2022/04/04 07:10:11;;;;;;;3.15;2.15;;;;;;;;;;5084957;28;20070;-60
2022/04/04 07:12:41;;;;;;;3.72;2.30;;;;;;;;;;5089817;28;20431;-60
2022/04/04 07:15:08;;;;;;;4.53;2.85;;;;;;;;;;5074051;28;20071;-60
2022/04/04 07:17:33;;;;;;;2.33;1.85;;;;;;;;;;5085523;28;20044;-60
2022/04/04 07:19:59;;;;;;;3.42;2.40;;;;;;;;;;5070744;28;20115;-60
2022/04/04 07:22:25;;;;;;;3.72;2.28;;;;;;;;;;5079514;28;20062;-60
2022/04/04 07:24:51;;;;;;;3.05;2.25;;;;;;;;;;5084610;28;20020;-60
2022/04/04 07:27:17;;;;;;;2.50;2.05;;;;;;;;;;5085284;28;20016;-60
2022/04/04 07:29:44;;;;;;;2.95;2.30;;;;;;;;;;5077504;28;20535;-60
2022/04/04 07:32:09;;;;;;;3.83;1.90;;;;;;;;;;5070362;28;20037;-59
2022/04/04 07:34:36;;;;;;;2.95;1.80;;;;;;;;;;5071080;28;20385;-60
2022/04/04 07:37:03;;;;;;;2.38;1.83;;;;;;;;;;5069720;28;20032;-60
2022/04/04 07:39:29;;;;;;;2.97;1.20;;;;;;;;;;5089068;28;20040;-60
2022/04/04 07:41:55;;;;;;;2.95;1.90;;;;;;;;;;5090434;28;20460;-60
2022/04/04 07:44:22;;;;;;;2.78;1.60;;;;;;;;;;5089719;28;20097;-60
2022/04/04 07:46:48;;;;;;;2.63;1.85;;;;;;;;;;5091046;28;20024;-60
2022/04/04 07:49:14;;;;;;;2.35;1.73;;;;;;;;;;5090190;28;20393;-59
2022/04/04 07:51:40;;;;;;;2.42;1.70;;;;;;;;;;5090037;28;20092;-60
2022/04/04 07:54:06;;;;;;;2.10;1.65;;;;;;;;;;5090376;28;20036;-59
2022/04/04 07:56:32;;;;;;;2.38;1.60;;;;;;;;;;5091275;28;20016;-59
2022/04/04 07:58:58;;;;;;;2.38;1.38;;;;;;;;;;5090656;28;20425;-59
2022/04/04 08:01:24;;;;;;;2.65;1.55;;;;;;;;;;5074423;28;20534;-60
2022/04/04 08:03:50;;;;;;;2.28;1.23;;;;;;;;;;5090594;28;20030;-59
2022/04/04 08:06:16;;;;;;;2.55;1.40;;;;;;;;;;5090865;28;20027;-60
2022/04/04 08:08:42;;;;;;;2.22;1.30;;;;;;;;;;5089932;28;20028;-60
2022/04/04 08:11:09;;;;;;;2.13;1.50;;;;;;;;;;5090140;28;20110;-59
2022/04/04 08:13:35;;;;;;;2.08;1.73;;;;;;;;;;5090883;28;20144;-60
2022/04/04 08:16:02;;;;;;;1.45;1.30;;;;;;;;;;5090827;28;20466;-60
2022/04/04 08:18:28;;;;;;;2.42;1.33;;;;;;;;;;5090279;28;20021;-60
2022/04/04 08:20:55;;;;;;;1.42;1.33;;;;;;;;;;5090953;28;20036;-60
2022/04/04 08:23:21;;;;;;;2.33;1.38;;;;;;;;;;5090019;28;20024;-60
2022/04/04 08:25:47;;;;;;;1.98;1.30;;;;;;;;;;5080842;28;20396;-60
2022/04/04 08:28:13;;;;;;;2.33;1.42;;;;;;;;;;5074064;28;20025;-60
2022/04/04 08:30:39;;;;;;;1.98;1.42;;;;;;;;;;5074891;28;20025;-59
2022/04/04 08:33:05;;;;;;;1.25;1.00;;;;;;;;;;5074249;28;20107;-59
2022/04/04 08:35:31;;;;;;;3.53;1.42;;;;;;;;;;5074308;28;20099;-59
2022/04/04 08:37:57;;;;;;;2.22;1.40;;;;;;;;;;5068146;28;20128;-60
2022/04/04 08:40:23;;;;;;;1.83;1.25;;;;;;;;;;5057270;28;20039;-60
2022/04/04 08:42:49;;;;;;;1.65;1.05;;;;;;;;;;5074337;28;20111;-60
2022/04/04 08:45:15;;;;;;;1.45;1.00;;;;;;;;;;5073586;28;20078;-60
2022/04/04 08:47:42;;;;;;;1.50;1.30;;;;;;;;;;5074433;28;20424;-60
2022/04/04 08:50:09;;;;;;;2.85;1.52;;;;;;;;;;5073170;28;20544;-60
2022/04/04 08:52:35;;;;;;;2.08;1.45;;;;;;;;;;5074307;28;20131;-59
2022/04/04 08:55:01;;;;;;;0.82;0.80;;;;;;;;;;5073840;28;20096;-60
2022/04/04 08:57:27;;;;;;;2.75;1.10;;;;;;;;;;5073158;28;20024;-60
2022/04/04 08:59:54;;;;;;;1.90;1.10;;;;;;;;;;5074190;28;20016;-60
2022/04/04 09:02:20;;;;;;;1.85;1.63;;;;;;;;;;5073002;28;20025;-60
2022/04/04 09:04:51;;;;;;;1.80;1.17;;;;;;;;;;5073320;28;20078;-59
2022/04/04 09:07:18;;;;;;;1.20;1.10;;;;;;;;;;5073250;28;20100;-59
2022/04/04 09:09:49;;;;;;;2.58;1.10;;;;;;;;;;5073843;28;20082;-59
2022/04/04 09:12:17;;;;;;;2.22;1.25;;;;;;;;;;5072784;28;20024;-59
2022/04/04 09:14:49;;;;;;;1.77;1.45;;;;;;;;;;5073806;28;20021;-59
2022/04/04 09:17:16;;;;;;;1.15;1.05;;;;;;;;;;5072836;28;20487;-59
2022/04/04 09:19:42;;;;;;;5.38;1.77;;;;;;;;;;5073429;28;20024;-59
2022/04/04 09:22:18;;;;;;;1.48;1.00;;;;;;;;;;5072880;28;20044;-60
2022/04/04 09:24:46;;;;;;;1.45;1.10;;;;;;;;;;5073555;28;20024;-59
2022/04/04 09:27:14;;;;;;;2.15;1.58;;;;;;;;;;5072843;28;20020;-59
2022/04/04 09:29:43;;;;;;;2.67;1.10;;;;;;;;;;5073635;28;20063;-59
2022/04/04 09:32:15;;;;;;;2.83;1.05;;;;;;;;;;5072870;28;20023;-59
2022/04/04 09:34:54;;;;;;;1.42;0.90;;;;;;;;;;5073602;28;20021;-59
2022/04/04 09:37:21;;;;;;;1.58;0.82;;;;;;;;;;5072200;28;20023;-59
2022/04/04 09:39:49;;;;;;;1.85;1.20;;;;;;;;;;5093543;28;20024;-60
2022/04/04 09:42:16;;;;;;;1.75;1.48;;;;;;;;;;5092948;28;20028;-60
2022/04/04 09:44:42;;;;;;;1.13;0.80;;;;;;;;;;5092988;28;20093;-60
2022/04/04 09:47:08;;;;;;;1.67;0.93;;;;;;;;;;5092941;28;20070;-60
2022/04/04 09:49:39;;;;;;;1.58;1.05;;;;;;;;;;5093588;28;20024;-60
2022/04/04 09:52:05;;;;;;;3.47;0.95;;;;;;;;;;5093484;28;20046;-60
2022/04/04 09:54:31;;;;;;;1.23;1.00;;;;;;;;;;5092425;28;20067;-60
2022/04/04 09:57:16;;;;;;;1.27;0.90;;;;;;;;;;5093311;28;20021;-59
2022/04/04 09:59:43;;;;;;;2.85;1.10;;;;;;;;;;5093097;28;20024;-59
2022/04/04 10:02:10;;;;;;;1.85;1.27;;;;;;;;;;5091975;28;20035;-59
2022/04/04 10:04:36;;;;;;;1.40;0.98;;;;;;;;;;5092734;28;20020;-59
2022/04/04 10:07:04;;;;;;;1.13;0.90;;;;;;;;;;5098034;28;20028;-59
2022/04/04 10:09:30;;;;;;;2.83;1.38;;;;;;;;;;5093175;28;20028;-60
2022/04/04 10:11:58;;;;;;;3.50;1.65;;;;;;;;;;5094331;28;20358;-62
2022/04/04 10:14:24;;;;;;;2.00;1.10;;;;;;;;;;5092086;28;20016;-60
2022/04/04 10:16:52;;;;;;;1.48;1.00;;;;;;;;;;5093088;28;20023;-61
2022/04/04 10:19:18;;;;;;;1.55;0.90;;;;;;;;;;5096843;28;20074;-65
2022/04/04 10:21:44;;;;;;;1.63;1.30;;;;;;;;;;5092523;28;20028;-60
2022/04/04 10:24:11;;;;;;;3.33;1.02;;;;;;;;;;5090838;28;20106;-58
2022/04/04 10:26:38;;;;;;;3.45;1.63;;;;;;;;;;5092558;28;20020;-60
2022/04/04 10:29:09;;;;;;;1.30;0.95;;;;;;;;;;5074649;28;20106;-66
2022/04/04 10:31:49;;;;;;;1.25;0.90;;;;;;;;;;5092728;28;20031;-69
2022/04/04 10:34:19;;;;;;;1.50;0.90;;;;;;;;;;5091364;28;20107;-63
2022/04/04 10:37:11;;;;;;;2.05;1.00;;;;;;;;;;5092450;28;20081;-67
2022/04/04 10:39:37;;;;;;;;;;;;;;;;;;5068490;28;20049;-61
2022/04/04 10:42:04;;;;;;;1.38;0.90;;;;;;;;;;5071865;28;19918;-61
2022/04/04 10:44:45;;;;;;;2.15;1.00;;;;;;;;;;5071492;28;20028;-61
2022/04/04 10:47:21;;;;;;;1.58;1.10;;;;;;;;;;5071200;28;20127;-59
2022/04/04 10:49:48;;;;;;;2.08;0.95;;;;;;;;;;5071775;28;20413;-61
2022/04/04 10:52:14;;;;;;;2.63;1.48;;;;;;;;;;5070732;28;20072;-60
2022/04/04 10:54:40;;;;;;;1.17;0.80;;;;;;;;;;5065252;28;20110;-60
2022/04/04 10:57:26;;;;;;;1.45;0.93;;;;;;;;;;5051511;28;20120;-60
2022/04/04 10:59:57;;;;;;;2.00;1.33;;;;;;;;;;5052010;28;20029;-60
2022/04/04 11:02:23;;;;;;;1.60;1.10;;;;;;;;;;5051329;28;20059;-60
2022/04/04 11:07:41;;;;;;;1.85;1.38;;;;;;;;;;5071436;28;20142;-60
2022/04/04 11:10:08;;;;;;;2.65;1.00;;;;;;;;;;5071205;28;20025;-60
2022/04/04 11:12:53;;;;;;;1.55;0.95;;;;;;;;;;5071797;28;20028;-60
2022/04/04 11:15:40;;;;;;;4.00;1.00;;;;;;;;;;5070884;28;20119;-61
2022/04/04 11:18:06;;;;;;;3.30;1.20;;;;;;;;;;5070216;28;20052;-60
2022/04/04 11:20:33;;;;;;;1.02;0.73;;;;;;;;;;5071411;28;20082;-60
2022/04/04 11:23:01;;;;;;;2.10;1.35;;;;;;;;;;5071538;28;20098;-60
2022/04/04 11:25:33;;;;;;;1.30;0.90;;;;;;;;;;5069937;28;20147;-60
2022/04/04 11:28:00;;;;;;;0.90;0.80;;;;;;;;;;5070491;28;20061;-60
2022/04/04 11:30:27;;;;;;;1.25;0.95;;;;;;;;;;5070063;28;20612;-60
2022/04/04 11:32:54;;;;;;;1.13;0.90;;;;;;;;;;5053475;28;20466;-60
2022/04/04 11:35:28;;;;;;;0.80;0.70;;;;;;;;;;5070343;28;20359;-60
2022/04/04 11:38:06;;;;;;;3.15;1.35;;;;;;;;;;5076813;28;20052;-60
2022/04/04 11:40:38;;;;;;;1.27;0.70;;;;;;;;;;5076121;28;20060;-60
2022/04/04 11:43:07;;;;;;;1.85;0.90;;;;;;;;;;5087028;28;20477;-60
2022/04/04 11:45:36;;;;;;;1.23;0.90;;;;;;;;;;5082787;28;20039;-60
2022/04/04 11:48:06;;;;;;;1.58;0.60;;;;;;;;;;5088836;28;20110;-60
2022/04/04 11:50:35;;;;;;;2.92;1.27;;;;;;;;;;5090629;28;20044;-60
2022/04/04 11:53:09;;;;;;;2.60;1.10;;;;;;;;;;5073063;28;20055;-60
2022/04/04 11:55:36;;;;;;;1.77;0.85;;;;;;;;;;5090033;28;20073;-60
2022/04/04 11:58:13;;;;;;;1.08;0.90;;;;;;;;;;5090541;28;20485;-60
2022/04/04 12:00:42;;;;;;;1.52;0.90;;;;;;;;;;5090466;28;20039;-60
2022/04/04 12:03:12;;;;;;;1.17;0.90;;;;;;;;;;5090250;28;20105;-60
2022/04/04 12:05:38;;;;;;;1.42;1.02;;;;;;;;;;5089889;28;20057;-60
2022/04/04 12:08:06;;;;;;;1.60;0.93;;;;;;;;;;5090304;28;20474;-60
2022/04/04 12:10:32;;;;;;;1.40;0.90;;;;;;;;;;5090481;28;20028;-60
2022/04/04 12:12:59;;;;;;;3.75;0.90;;;;;;;;;;5090598;28;20225;-60
2022/04/04 12:15:26;;;;;;;1.05;0.70;;;;;;;;;;5089561;28;20298;-60
2022/04/04 12:17:52;;;;;;;1.13;0.90;;;;;;;;;;5090541;28;20401;-60
2022/04/04 12:20:18;;;;;;;1.30;0.88;;;;;;;;;;5090123;28;20036;-60
2022/04/04 12:25:29;;;;;;;0.90;0.77;;;;;;;;;;5082526;28;20027;-60
2022/04/04 12:27:59;;;;;;;0.90;0.80;;;;;;;;;;5089838;28;20035;-60
2022/04/04 12:30:29;;;;;;;1.15;0.80;;;;;;;;;;5090106;28;20036;-60
2022/04/04 12:33:06;;;;;;;1.95;0.63;;;;;;;;;;5089760;28;20050;-60
2022/04/04 12:35:33;;;;;;;1.00;0.88;;;;;;;;;;5088790;28;20051;-60
2022/04/04 12:37:59;;;;;;;1.17;0.65;;;;;;;;;;5090346;28;20043;-60
2022/04/04 12:40:25;;;;;;;1.15;0.70;;;;;;;;;;5089736;28;20094;-60
2022/04/04 12:42:53;;;;;;;0.90;0.75;;;;;;;;;;5075481;28;20028;-61
2022/04/04 12:45:20;;;;;;;0.75;0.68;;;;;;;;;;5081235;28;20028;-61
2022/04/04 12:48:05;;;;;;;1.50;0.63;;;;;;;;;;5070209;28;20078;-60
2022/04/04 12:50:37;;;;;;;1.35;0.88;;;;;;;;;;5086630;28;20040;-60
2022/04/04 12:53:03;;;;;;;1.13;0.70;;;;;;;;;;5090561;28;20029;-60
2022/04/04 12:55:29;;;;;;;0.90;0.70;;;;;;;;;;5076252;28;20028;-60
2022/04/04 12:57:56;;;;;;;0.50;0.50;;;;;;;;;;5087345;28;20032;-60
2022/04/04 13:00:27;;;;;;;1.48;0.93;;;;;;;;;;5079616;28;20036;-60
2022/04/04 13:02:53;;;;;;;1.70;0.80;;;;;;;;;;5070197;28;20028;-61
2022/04/04 13:05:23;;;;;;;1.25;0.70;;;;;;;;;;5084008;28;20034;-60
2022/04/04 13:07:53;;;;;;;1.52;0.75;;;;;;;;;;5090171;28;20032;-60
2022/04/04 13:10:24;;;;;;;1.83;0.85;;;;;;;;;;5080589;28;20048;-60
2022/04/04 13:12:49;;;;;;;0.90;0.60;;;;;;;;;;5073835;28;20363;-61
2022/04/04 13:15:34;;;;;;;1.38;0.70;;;;;;;;;;5073093;28;20035;-60
2022/04/04 13:18:01;;;;;;;0.90;0.70;;;;;;;;;;5074164;28;20052;-60
2022/04/04 13:20:27;;;;;;;1.15;0.80;;;;;;;;;;5072937;28;20168;-61
2022/04/04 13:22:53;;;;;;;1.27;1.13;;;;;;;;;;5073897;28;20032;-60
2022/04/04 13:25:19;;;;;;;0.73;0.65;;;;;;;;;;5077914;28;20045;-60
2022/04/04 13:27:45;;;;;;;1.05;0.73;;;;;;;;;;5086632;28;20047;-60
2022/04/04 13:30:12;;;;;;;2.40;0.95;;;;;;;;;;5078590;28;20021;-60
2022/04/04 13:32:40;;;;;;;0.90;0.80;;;;;;;;;;5092779;28;20020;-60
2022/04/04 13:35:06;;;;;;;1.05;0.70;;;;;;;;;;5093735;28;20032;-61
2022/04/04 13:37:32;;;;;;;0.95;0.68;;;;;;;;;;5081632;28;20027;-60
2022/04/04 13:39:59;;;;;;;1.10;0.57;;;;;;;;;;5092423;28;20020;-60
2022/04/04 13:42:25;;;;;;;1.42;1.00;;;;;;;;;;5091777;28;20028;-60
2022/04/04 13:44:54;;;;;;;1.48;1.00;;;;;;;;;;5093668;28;20360;-60
2022/04/04 13:47:20;;;;;;;0.88;0.60;;;;;;;;;;5091675;28;20426;-60
2022/04/04 13:49:46;;;;;;;0.82;0.73;;;;;;;;;;5092437;28;20107;-60
2022/04/04 13:52:13;;;;;;;4.45;1.08;;;;;;;;;;5092415;28;20115;-60
2022/04/04 13:54:40;;;;;;;1.80;1.10;;;;;;;;;;5092902;28;20016;-61
2022/04/04 13:57:06;;;;;;;3.30;1.65;;;;;;;;;;5092767;28;20047;-61
2022/04/04 13:59:32;;;;;;;4.43;0.98;;;;;;;;;;5091435;28;20024;-61
2022/04/04 14:01:58;;;;;;;4.47;1.23;;;;;;;;;;5092785;28;20024;-62
2022/04/04 14:04:24;;;;;;;2.78;0.80;;;;;;;;;;5091564;28;20032;-61
2022/04/04 14:06:50;;;;;;;1.98;0.98;;;;;;;;;;5091353;28;20020;-61
2022/04/04 14:09:17;;;;;;;4.70;1.13;;;;;;;;;;5091836;28;20028;-61
2022/04/04 14:11:43;;;;;;;0.75;0.70;;;;;;;;;;5093111;28;20032;-59
2022/04/04 14:14:11;;;;;;;2.38;1.30;;;;;;;;;;5092610;28;20041;-62
2022/04/04 14:16:39;;;;;;;2.67;0.80;;;;;;;;;;5074617;28;20042;-62
2022/04/04 14:19:05;;;;;;;1.45;1.00;;;;;;;;;;5091763;28;20032;-61
2022/04/04 14:21:31;;;;;;;6.43;0.90;;;;;;;;;;5089964;28;20592;-61
2022/04/04 14:23:57;;;;;;;1.17;0.60;;;;;;;;;;5091329;28;20392;-61
2022/04/04 14:26:23;;;;;;;3.08;0.75;;;;;;;;;;5091343;28;20427;-60
2022/04/04 14:28:49;;;;;;;1.40;0.70;;;;;;;;;;5092585;28;20028;-61
2022/04/04 14:31:15;;;;;;;1.02;0.82;;;;;;;;;;5091462;28;20353;-61
2022/04/04 14:33:41;;;;;;;1.30;0.80;;;;;;;;;;5092574;28;20020;-61
2022/04/04 14:36:08;;;;;;;1.15;0.95;;;;;;;;;;5092078;28;20073;-61
2022/04/04 14:38:37;;;;;;;0.98;0.73;;;;;;;;;;5092052;28;20048;-61
2022/04/04 14:41:04;;;;;;;1.00;0.70;;;;;;;;;;5091821;28;20556;-61
2022/04/04 14:43:30;;;;;;;0.50;0.50;;;;;;;;;;5091308;28;20652;-61
2022/04/04 14:45:56;;;;;;;1.05;0.73;;;;;;;;;;5091047;28;20412;-61
2022/04/04 14:48:23;;;;;;;1.70;0.80;;;;;;;;;;5091222;28;20069;-60
2022/04/04 14:50:49;;;;;;;1.35;0.85;;;;;;;;;;5092113;28;20089;-61